Time;durP1;ratioP1;P1;durP2;ratioP2;P2;SDS_P1;SDS_P2;PMS_P1;PMS_P2;Temp;Humidity;BMP_temperature;BMP_pressure;BME280_temperature;BME280_humidity;BME280_pressure;Samples;Min_cycle;Max_cycle;Signal;HPM_P1;HPM_P2
2021/01/30 00:01:59;;;;;;;2.78;0.50;;;;;;;6.64;85.86;97440.78;4984448;28;20041;-69
2021/01/30 00:04:25;;;;;;;5.13;0.65;;;;;;;6.66;84.52;97441.38;4977825;28;20023;-70
2021/01/30 00:06:54;;;;;;;6.25;0.60;;;;;;;6.69;84.50;97438.28;4986641;28;20034;-69
2021/01/30 00:09:21;;;;;;;1.20;0.50;;;;;;;6.66;83.48;97455.66;4995910;28;20377;-69
2021/01/30 00:11:48;;;;;;;2.25;0.70;;;;;;;6.64;83.84;97432.69;4981827;28;20425;-69
2021/01/30 00:14:18;;;;;;;0.98;0.40;;;;;;;6.68;84.61;97469.69;4988423;28;20488;-70
2021/01/30 00:16:44;;;;;;;2.72;0.70;;;;;;;6.67;84.33;97461.84;4980368;28;20029;-69
2021/01/30 00:19:09;;;;;;;1.83;0.55;;;;;;;6.64;84.97;97459.56;4994306;28;20109;-69
2021/01/30 00:21:34;;;;;;;1.13;0.50;;;;;;;6.64;85.04;97467.63;4993678;28;20457;-70
2021/01/30 00:23:59;;;;;;;3.25;0.63;;;;;;;6.63;84.80;97469.50;4976686;28;20030;-69
2021/01/30 00:26:25;;;;;;;0.68;0.30;;;;;;;6.61;84.98;97452.75;4977634;28;20113;-69
2021/01/30 00:28:50;;;;;;;2.50;0.40;;;;;;;6.56;85.02;97460.63;4990613;28;20041;-69
2021/01/30 00:31:15;;;;;;;1.10;0.50;;;;;;;6.48;85.43;97458.16;4980278;28;20018;-69
2021/01/30 00:33:40;;;;;;;2.15;0.50;;;;;;;6.55;84.95;97464.38;4987421;28;20031;-69
2021/01/30 00:36:06;;;;;;;3.17;0.63;;;;;;;6.54;84.65;97462.69;4996430;28;20401;-69
2021/01/30 00:38:31;;;;;;;0.68;0.40;;;;;;;6.54;84.88;97458.13;4994949;28;20141;-69
2021/01/30 00:40:56;;;;;;;1.83;0.60;;;;;;;6.53;85.06;97464.56;4983387;28;20038;-69
2021/01/30 00:43:22;;;;;;;2.47;0.68;;;;;;;6.50;84.82;97461.47;4988402;28;20031;-69
2021/01/30 00:45:47;;;;;;;3.70;0.80;;;;;;;6.42;84.93;97461.69;4990393;28;20109;-69
2021/01/30 00:48:12;;;;;;;4.28;0.80;;;;;;;6.42;85.17;97465.22;4979619;28;20031;-69
2021/01/30 00:50:37;;;;;;;2.30;0.70;;;;;;;6.39;84.64;97462.09;4989462;28;20460;-69
2021/01/30 00:53:04;;;;;;;2.15;0.70;;;;;;;6.42;83.99;97469.75;4994589;28;20042;-68
2021/01/30 00:55:29;;;;;;;1.15;0.50;;;;;;;6.38;84.58;97465.84;4980002;28;20105;-68
2021/01/30 00:57:54;;;;;;;2.67;0.60;;;;;;;6.38;84.52;97468.53;4975825;28;20125;-69
2021/01/30 01:00:23;;;;;;;3.60;0.60;;;;;;;6.31;84.36;97461.31;4978590;28;20102;-69
2021/01/30 01:02:49;;;;;;;5.07;0.82;;;;;;;6.24;84.65;97463.19;4989670;28;20041;-69
2021/01/30 01:05:15;;;;;;;2.72;0.60;;;;;;;6.23;84.75;97472.25;4982781;28;20458;-69
2021/01/30 01:07:44;;;;;;;2.70;0.73;;;;;;;6.30;83.58;97456.97;4978510;28;20134;-69
2021/01/30 01:10:12;;;;;;;1.70;0.57;;;;;;;6.28;83.63;97467.06;4992015;28;20393;-69
2021/01/30 01:12:37;;;;;;;4.60;0.60;;;;;;;6.18;83.59;97445.19;4975618;28;20035;-69
2021/01/30 01:15:05;;;;;;;2.85;0.43;;;;;;;6.22;83.33;97456.34;4977565;28;20384;-69
2021/01/30 01:17:30;;;;;;;3.58;0.50;;;;;;;6.31;82.94;97473.88;4976213;28;20023;-69
2021/01/30 01:19:56;;;;;;;1.83;0.45;;;;;;;6.30;83.24;97480.31;4975916;28;20555;-69
2021/01/30 01:22:21;;;;;;;7.70;0.60;;;;;;;6.27;83.52;97470.81;4982255;28;20030;-68
2021/01/30 01:24:46;;;;;;;2.50;0.47;;;;;;;6.26;83.70;97489.81;4982761;28;20153;-68
2021/01/30 01:27:11;;;;;;;1.48;0.57;;;;;;;6.31;83.46;97493.53;4989416;28;20031;-69
2021/01/30 01:29:37;;;;;;;0.65;0.30;;;;;;;6.29;83.18;97481.34;4994971;28;20030;-69
2021/01/30 01:32:02;;;;;;;2.95;0.60;;;;;;;6.18;83.43;97468.53;4985042;28;20054;-70
2021/01/30 01:34:29;;;;;;;2.88;0.50;;;;;;;6.37;83.05;97483.81;4978920;28;20026;-69
2021/01/30 01:36:58;;;;;;;2.88;0.60;;;;;;;6.40;83.55;97496.00;4994634;28;20377;-68
2021/01/30 01:39:24;;;;;;;5.82;0.70;;;;;;;6.39;83.37;97486.28;4979858;28;20074;-68
2021/01/30 01:41:58;;;;;;;1.77;0.32;;;;;;;6.41;83.20;97506.53;4986168;28;20369;-68
2021/01/30 01:44:23;;;;;;;2.28;0.55;;;;;;;6.39;83.26;97481.72;4993929;28;20061;-68
2021/01/30 01:46:50;;;;;;;3.33;0.70;;;;;;;6.20;83.70;97466.47;4986226;28;20078;-68
2021/01/30 01:49:21;;;;;;;6.10;0.77;;;;;;;6.23;83.68;97484.84;4975537;28;20122;-68
2021/01/30 01:51:56;;;;;;;2.78;0.73;;;;;;;5.98;83.74;97455.16;4987397;28;20109;-68
2021/01/30 01:54:25;;;;;;;2.28;0.60;;;;;;;6.09;84.02;97476.00;4989329;28;20019;-68
2021/01/30 01:56:55;;;;;;;;;;;;;;;6.20;83.28;97469.97;4985827;28;20069;-68
2021/01/30 01:59:22;;;;;;;1.98;0.57;;;;;;;6.21;83.24;97473.50;4991654;28;19921;-68
2021/01/30 02:01:49;;;;;;;2.25;0.80;;;;;;;6.13;83.61;97477.22;4977760;28;20033;-68
2021/01/30 02:04:17;;;;;;;3.20;0.73;;;;;;;6.20;83.29;97480.72;4991632;28;20038;-68
2021/01/30 02:06:45;;;;;;;2.28;0.38;;;;;;;6.21;83.06;97455.53;4991327;28;20018;-68
2021/01/30 02:09:20;;;;;;;1.77;0.57;;;;;;;6.19;82.97;97462.97;4982705;28;20022;-69
2021/01/30 02:12:02;;;;;;;4.07;0.43;;;;;;;6.19;82.38;97454.91;4996213;28;20036;-69
2021/01/30 02:14:31;;;;;;;2.88;0.63;;;;;;;6.11;82.56;97463.19;4983031;28;20030;-68
2021/01/30 02:17:11;;;;;;;5.13;0.50;;;;;;;6.07;83.40;97456.56;4977588;28;20031;-68
2021/01/30 02:19:58;;;;;;;0.68;0.30;;;;;;;6.05;83.15;97470.22;4977886;28;20034;-68
2021/01/30 02:22:56;;;;;;;1.92;0.50;;;;;;;6.05;83.75;97464.84;4983204;28;20516;-68
2021/01/30 02:25:56;;;;;;;4.60;0.55;;;;;;;6.03;84.86;97460.72;4991028;28;20116;-68
2021/01/30 02:28:35;;;;;;;4.88;0.68;;;;;;;6.09;84.87;97467.94;4989620;28;20026;-67
2021/01/30 02:31:26;;;;;;;4.32;0.63;;;;;;;6.02;85.42;97469.78;4993443;28;20101;-68
2021/01/30 02:34:23;;;;;;;4.63;0.80;;;;;;;6.00;85.77;97455.75;4993260;28;20393;-67
2021/01/30 02:36:52;;;;;;;2.53;0.50;;;;;;;6.03;85.30;97461.53;4993418;28;20022;-68
2021/01/30 02:39:22;;;;;;;0.98;0.40;;;;;;;5.98;84.94;97457.84;4977290;28;20059;-69
2021/01/30 02:41:56;;;;;;;1.98;0.52;;;;;;;6.04;85.36;97457.81;4986008;28;20072;-67
2021/01/30 02:44:23;;;;;;;4.53;0.57;;;;;;;6.07;85.11;97464.63;4989484;28;20027;-70
2021/01/30 02:46:53;;;;;;;4.47;0.50;;;;;;;6.13;84.41;97464.63;4993871;28;20032;-70
2021/01/30 02:49:26;;;;;;;2.63;0.50;;;;;;;6.14;83.96;97460.91;4974349;28;20058;-70
2021/01/30 02:52:13;;;;;;;3.25;0.50;;;;;;;6.18;83.96;97445.19;4992951;28;20026;-69
2021/01/30 02:54:40;;;;;;;1.30;0.50;;;;;;;6.22;84.01;97467.09;4975037;28;20045;-69
2021/01/30 02:57:13;;;;;;;3.47;0.60;;;;;;;6.24;83.57;97460.50;4991175;28;20456;-70
2021/01/30 02:59:46;;;;;;;2.35;0.57;;;;;;;6.23;83.46;97463.38;4982111;28;20058;-70
2021/01/30 03:02:11;;;;;;;2.60;0.55;;;;;;;6.25;83.62;97451.38;4991927;28;20064;-70
2021/01/30 03:04:37;;;;;;;1.90;0.40;;;;;;;6.22;83.38;97442.94;4974476;28;20058;-70
2021/01/30 03:07:08;;;;;;;3.20;0.65;;;;;;;6.23;84.10;97431.97;4991224;28;20074;-70
2021/01/30 03:10:00;;;;;;;6.88;0.75;;;;;;;6.17;83.88;97440.88;4973682;28;20026;-70
2021/01/30 03:12:39;;;;;;;4.30;0.68;;;;;;;6.20;84.08;97424.34;4974360;28;20489;-70
2021/01/30 03:15:10;;;;;;;0.95;0.30;;;;;;;6.19;83.98;97425.38;4978384;28;20033;-70
2021/01/30 03:17:36;;;;;;;2.72;0.47;;;;;;;6.05;83.26;97395.03;4976771;28;20026;-69
2021/01/30 03:20:04;;;;;;;3.50;0.57;;;;;;;6.21;82.90;97420.63;4973482;28;20027;-70
2021/01/30 03:22:32;;;;;;;2.83;0.45;;;;;;;6.05;83.79;97399.56;4985553;28;20033;-69
2021/01/30 03:24:57;;;;;;;1.17;0.35;;;;;;;6.17;83.34;97408.63;4990262;28;20030;-70
2021/01/30 03:27:27;;;;;;;2.92;0.40;;;;;;;6.23;83.07;97410.47;4979827;28;20369;-69
2021/01/30 03:29:54;;;;;;;3.53;0.45;;;;;;;6.23;82.76;97415.84;4974507;28;20400;-68
2021/01/30 03:32:20;;;;;;;4.00;0.40;;;;;;;6.25;82.97;97416.47;4973398;28;20090;-70
2021/01/30 03:34:48;;;;;;;3.72;0.60;;;;;;;6.23;82.56;97417.72;4984989;28;20465;-68
2021/01/30 03:37:14;;;;;;;3.17;0.40;;;;;;;6.23;82.33;97423.91;4987109;28;20566;-68
2021/01/30 03:39:40;;;;;;;0.50;0.32;;;;;;;6.27;82.13;97419.78;4973372;28;20106;-68
2021/01/30 03:42:06;;;;;;;1.42;0.25;;;;;;;6.23;82.46;97415.03;4974358;28;20049;-68
2021/01/30 03:44:32;;;;;;;1.30;0.32;;;;;;;6.24;82.08;97416.69;4992326;28;20084;-68
2021/01/30 03:46:57;;;;;;;3.88;0.77;;;;;;;6.19;82.41;97424.56;4976874;28;20094;-68
2021/01/30 03:49:23;;;;;;;3.63;0.90;;;;;;;6.18;82.46;97428.25;4977079;28;20109;-68
2021/01/30 03:51:48;;;;;;;2.25;0.30;;;;;;;6.15;82.69;97416.06;4986062;28;20110;-68
2021/01/30 03:54:14;;;;;;;2.78;0.40;;;;;;;6.17;82.81;97413.19;4980491;28;20038;-68
2021/01/30 03:56:42;;;;;;;2.85;0.40;;;;;;;6.08;83.52;97404.53;4987331;28;20026;-68
2021/01/30 03:59:08;;;;;;;1.65;0.30;;;;;;;5.97;83.56;97386.38;4989341;28;20030;-68
2021/01/30 04:01:33;;;;;;;1.65;0.52;;;;;;;6.11;83.62;97409.50;4973584;28;20030;-70
2021/01/30 04:03:59;;;;;;;1.45;0.30;;;;;;;6.16;82.87;97415.06;4977999;28;20039;-69
2021/01/30 04:06:24;;;;;;;3.67;0.50;;;;;;;6.11;83.85;97407.63;4978912;28;20533;-69
2021/01/30 04:08:49;;;;;;;3.08;0.30;;;;;;;6.03;83.63;97409.72;4985080;28;20042;-69
2021/01/30 04:11:15;;;;;;;0.95;0.25;;;;;;;6.00;84.67;97412.78;4977564;28;20035;-69
2021/01/30 04:13:40;;;;;;;1.20;0.25;;;;;;;5.98;85.04;97413.00;4973007;28;20492;-69
2021/01/30 04:16:05;;;;;;;1.10;0.30;;;;;;;5.93;85.43;97407.41;4975884;28;20033;-70
2021/01/30 04:18:30;;;;;;;1.00;0.40;;;;;;;5.84;85.67;97398.75;4975517;28;20503;-69
2021/01/30 04:20:56;;;;;;;2.28;0.57;;;;;;;5.85;86.06;97403.09;4973344;28;20039;-69
2021/01/30 04:23:21;;;;;;;2.95;0.40;;;;;;;5.83;86.06;97399.78;4977915;28;20037;-69
2021/01/30 04:25:46;;;;;;;2.88;0.52;;;;;;;5.67;86.43;97373.38;4989475;28;20034;-69
2021/01/30 04:28:12;;;;;;;1.30;0.38;;;;;;;5.71;87.14;97388.00;4988514;28;20082;-69
2021/01/30 04:30:37;;;;;;;0.47;0.20;;;;;;;5.58;87.30;97370.06;4975695;28;20065;-69
2021/01/30 04:33:02;;;;;;;1.05;0.30;;;;;;;5.66;87.29;97393.19;4971992;28;20392;-69
2021/01/30 04:35:34;;;;;;;3.00;0.30;;;;;;;5.51;87.57;97365.75;4976008;28;20102;-69
2021/01/30 04:38:01;;;;;;;1.80;0.40;;;;;;;5.65;87.54;97386.97;4991857;28;20061;-69
2021/01/30 04:40:40;;;;;;;2.22;0.50;;;;;;;5.65;87.83;97394.22;4975137;28;20031;-69
2021/01/30 04:43:24;;;;;;;;;;;;;;;5.64;87.95;97384.53;4988141;28;20038;-69
2021/01/30 04:46:05;;;;;;;2.00;0.30;;;;;;;5.68;87.90;97383.06;4977959;28;19917;-70
2021/01/30 04:48:53;;;;;;;1.58;0.38;;;;;;;5.62;88.36;97373.16;4987099;28;20064;-69
2021/01/30 04:51:34;;;;;;;3.45;0.45;;;;;;;5.63;88.29;97378.34;4990370;28;20110;-67
2021/01/30 04:54:08;;;;;;;2.50;0.35;;;;;;;5.59;88.69;97371.72;4995345;28;20026;-69
2021/01/30 04:56:58;;;;;;;0.88;0.30;;;;;;;5.59;87.55;97365.53;4988764;28;20030;-69
2021/01/30 04:59:41;;;;;;;3.28;0.47;;;;;;;5.47;88.04;97368.00;4989194;28;20051;-68
2021/01/30 05:02:17;;;;;;;1.65;0.32;;;;;;;5.48;88.56;97370.47;4981162;28;20030;-68
2021/01/30 05:04:47;;;;;;;0.88;0.28;;;;;;;5.45;88.86;97368.22;4981166;28;20030;-73
2021/01/30 05:07:29;;;;;;;2.25;0.38;;;;;;;5.45;88.27;97362.03;4987219;28;20029;-75
2021/01/30 05:09:58;;;;;;;0.52;0.28;;;;;;;5.49;88.15;97363.25;4991726;28;20022;-78
2021/01/30 05:12:33;;;;;;;2.78;0.30;;;;;;;5.33;87.83;97347.56;4996978;28;20048;-76
2021/01/30 05:15:23;;;;;;;1.70;0.38;;;;;;;5.44;87.87;97361.19;4995167;28;20030;-74
2021/01/30 05:18:12;;;;;;;0.93;0.25;;;;;;;5.53;87.21;97360.97;4993987;28;20026;-73
2021/01/30 05:20:43;;;;;;;1.20;0.40;;;;;;;5.31;87.55;97336.22;4988173;28;20034;-79
2021/01/30 05:23:11;;;;;;;0.93;0.30;;;;;;;5.44;87.77;97350.47;5001407;28;20058;-73
2021/01/30 05:25:36;;;;;;;5.43;0.32;;;;;;;5.51;87.02;97366.56;4988622;28;20022;-76
2021/01/30 05:28:24;;;;;;;3.17;0.50;;;;;;;5.31;87.26;97328.19;4991161;28;20389;-73
2021/01/30 05:31:13;;;;;;;2.65;0.40;;;;;;;5.50;86.67;97346.13;4981436;28;20073;-81
2021/01/30 05:34:04;;;;;;;1.73;0.30;;;;;;;5.49;86.67;97350.66;4997805;28;20027;-76
2021/01/30 05:36:35;;;;;;;2.28;0.43;;;;;;;5.51;86.62;97345.09;4996139;28;20043;-79
2021/01/30 05:39:08;;;;;;;0.63;0.28;;;;;;;5.51;86.93;97355.00;4993559;28;20065;-74
2021/01/30 05:41:46;;;;;;;1.13;0.35;;;;;;;5.52;86.23;97351.28;4990046;28;20023;-77
2021/01/30 05:44:28;;;;;;;0.80;0.20;;;;;;;5.49;86.05;97334.56;4995061;28;20042;-74
2021/01/30 05:46:54;;;;;;;3.30;0.50;;;;;;;5.56;85.49;97339.13;4990342;28;20029;-76
2021/01/30 05:49:27;;;;;;;1.40;0.38;;;;;;;5.55;85.66;97329.41;4995075;28;20023;-76
2021/01/30 05:52:08;;;;;;;1.92;0.73;;;;;;;5.67;84.75;97336.63;5009623;28;20054;-76
2021/01/30 05:54:33;;;;;;;2.70;0.60;;;;;;;5.62;84.34;97331.06;4996457;28;20042;-76
2021/01/30 05:56:58;;;;;;;6.93;0.70;;;;;;;5.65;83.33;97311.03;4995803;28;20096;-76
2021/01/30 05:59:27;;;;;;;2.17;0.60;;;;;;;5.74;83.26;97304.44;4992615;28;20464;-77
2021/01/30 06:02:22;;;;;;;6.85;1.00;;;;;;;5.94;82.54;97333.91;4993141;28;20030;-75
2021/01/30 06:04:48;;;;;;;2.45;0.60;;;;;;;6.06;81.61;97332.25;4982041;28;20026;-75
2021/01/30 06:07:24;;;;;;;3.92;0.77;;;;;;;6.07;80.94;97307.03;4993954;28;20014;-75
2021/01/30 06:09:50;;;;;;;4.13;0.88;;;;;;;6.09;80.70;97309.53;5001500;28;20026;-73
2021/01/30 06:12:33;;;;;;;9.38;1.00;;;;;;;6.23;80.16;97321.03;4993750;28;20092;-73
2021/01/30 06:15:14;;;;;;;7.32;0.90;;;;;;;6.22;80.45;97330.97;4993965;28;20480;-73
2021/01/30 06:17:40;;;;;;;8.95;1.05;;;;;;;6.23;80.53;97316.47;4992769;28;20125;-73
2021/01/30 06:20:09;;;;;;;7.15;1.35;;;;;;;6.21;80.45;97313.22;5010807;28;20025;-73
2021/01/30 06:22:35;;;;;;;6.25;0.80;;;;;;;6.17;80.19;97306.59;5011966;28;20113;-73
2021/01/30 06:25:22;;;;;;;10.65;1.27;;;;;;;6.21;79.50;97313.22;4993916;28;20562;-73
2021/01/30 06:27:49;;;;;;;8.50;1.10;;;;;;;6.28;79.99;97319.34;4991512;28;20030;-72
2021/01/30 06:30:29;;;;;;;8.65;1.10;;;;;;;6.25;78.98;97308.22;4985015;28;20118;-72
2021/01/30 06:32:59;;;;;;;8.75;1.10;;;;;;;6.28;79.10;97307.78;4977998;28;20210;-71
2021/01/30 06:35:31;;;;;;;11.48;0.98;;;;;;;6.33;79.21;97321.41;4986375;28;20414;-79
2021/01/30 06:38:11;;;;;;;12.88;1.20;;;;;;;6.29;79.06;97312.97;4991734;28;20544;-78
2021/01/30 06:40:50;;;;;;;12.45;1.52;;;;;;;6.21;80.29;97315.91;4990626;28;20034;-71
2021/01/30 06:43:22;;;;;;;10.27;1.35;;;;;;;6.23;80.06;97321.03;4990228;28;20169;-69
2021/01/30 06:45:47;;;;;;;13.13;1.17;;;;;;;6.17;80.07;97306.59;4991875;28;20018;-69
2021/01/30 06:48:29;;;;;;;4.03;1.23;;;;;;;6.21;79.76;97313.22;4993550;28;20032;-69
2021/01/30 06:50:54;;;;;;;5.30;0.73;;;;;;;6.23;79.37;97300.38;4993421;28;20538;-69
2021/01/30 06:53:28;;;;;;;11.02;1.63;;;;;;;6.30;79.34;97306.53;4992183;28;20030;-69
2021/01/30 06:56:02;;;;;;;12.60;1.40;;;;;;;6.35;78.56;97303.22;4992928;28;20075;-68
2021/01/30 06:58:37;;;;;;;10.05;1.17;;;;;;;6.28;78.82;97305.94;4990208;28;20396;-69
2021/01/30 07:01:09;;;;;;;12.75;1.63;;;;;;;6.29;78.97;97301.41;4981714;28;20031;-69
2021/01/30 07:04:08;;;;;;;12.70;1.60;;;;;;;6.22;79.68;97297.91;4993616;28;20400;-69
2021/01/30 07:07:11;;;;;;;8.07;0.93;;;;;;;6.20;79.87;97295.44;4973399;28;20388;-69
2021/01/30 07:10:01;;;;;;;5.80;1.00;;;;;;;6.13;79.87;97290.09;4991320;28;20022;-69
2021/01/30 07:12:49;;;;;;;6.05;0.98;;;;;;;6.12;79.88;97296.50;4980470;28;20027;-69
2021/01/30 07:15:32;;;;;;;8.20;1.30;;;;;;;6.11;79.60;97288.66;4988754;28;20104;-69
2021/01/30 07:18:21;;;;;;;8.85;2.05;;;;;;;6.19;79.87;97299.16;4975231;28;20294;-69
2021/01/30 07:21:14;;;;;;;11.60;1.83;;;;;;;6.15;79.50;97292.56;4986764;28;20055;-70
2021/01/30 07:24:21;;;;;;;12.30;1.40;;;;;;;6.15;80.07;97292.56;4976334;28;20388;-69
2021/01/30 07:27:13;;;;;;;7.18;1.63;;;;;;;6.19;79.96;97293.78;4988305;28;20120;-76
2021/01/30 07:29:57;;;;;;;11.35;0.93;;;;;;;6.15;79.28;97281.81;4996984;28;20134;-76
2021/01/30 07:32:32;;;;;;;12.05;1.52;;;;;;;6.33;79.63;97303.44;4980859;28;20022;-74
2021/01/30 07:35:11;;;;;;;7.38;1.48;;;;;;;6.30;78.55;97273.50;4988320;28;20053;-74
2021/01/30 07:37:59;;;;;;;11.38;1.35;;;;;;;6.42;78.96;97282.53;4992654;28;20072;-73
2021/01/30 07:40:37;;;;;;;8.27;1.20;;;;;;;6.51;78.16;97280.41;4973646;28;20729;-73
2021/01/30 07:43:21;;;;;;;9.25;1.45;;;;;;;6.68;77.26;97291.47;4973198;28;20109;-74
2021/01/30 07:46:02;;;;;;;8.27;1.70;;;;;;;6.59;77.71;97283.66;4973736;28;20038;-72
2021/01/30 07:48:32;;;;;;;12.15;1.92;;;;;;;6.54;78.19;97280.81;4987683;28;20023;-73
2021/01/30 07:51:09;;;;;;;6.30;1.92;;;;;;;6.54;79.04;97286.19;4988518;28;20041;-72
2021/01/30 07:53:35;;;;;;;13.27;1.88;;;;;;;6.25;79.31;97249.16;4981695;28;20085;-72
2021/01/30 07:56:17;;;;;;;10.60;1.70;;;;;;;6.37;79.15;97271.63;4979688;28;20412;-75
2021/01/30 07:59:12;;;;;;;8.98;1.65;;;;;;;6.31;79.18;97275.97;4987944;28;20088;-76
2021/01/30 08:02:25;;;;;;;7.10;1.50;;;;;;;6.21;79.71;97270.25;4991987;28;20080;-75
2021/01/30 08:05:13;;;;;;;13.55;1.80;;;;;;;6.26;79.57;97274.94;4960974;28;20065;-78
2021/01/30 08:07:48;;;;;;;8.18;1.55;;;;;;;6.26;79.90;97272.25;4989879;28;20028;-75
2021/01/30 08:10:22;;;;;;;5.68;1.55;;;;;;;6.28;79.32;97270.19;4990498;28;20065;-73
2021/01/30 08:13:17;;;;;;;8.75;1.75;;;;;;;6.39;79.33;97269.50;4986548;28;20018;-74
2021/01/30 08:16:04;;;;;;;12.35;2.10;;;;;;;6.48;79.09;97262.06;4985209;28;20026;-76
2021/01/30 08:18:38;;;;;;;12.98;2.30;;;;;;;6.44;78.56;97266.19;4985079;28;20408;-72
2021/01/30 08:21:29;;;;;;;17.67;3.30;;;;;;;6.42;78.61;97253.00;4985909;28;20038;-72
2021/01/30 08:24:21;;;;;;;9.73;2.53;;;;;;;6.53;78.91;97267.59;4990600;28;20076;-73
2021/01/30 08:27:09;;;;;;;10.50;2.85;;;;;;;6.59;78.07;97256.81;4995391;28;20109;-76
2021/01/30 08:29:39;;;;;;;11.63;3.20;;;;;;;6.59;77.83;97250.59;4993642;28;20511;-76
2021/01/30 08:32:22;;;;;;;19.50;2.70;;;;;;;6.77;77.04;97257.94;4977935;28;20026;-76
2021/01/30 08:34:48;;;;;;;11.70;2.45;;;;;;;6.75;77.00;97254.63;4994458;28;20480;-71
2021/01/30 08:37:13;;;;;;;11.02;2.20;;;;;;;6.80;77.06;97268.25;4986410;28;20046;-76
2021/01/30 08:40:00;;;;;;;11.93;3.35;;;;;;;6.76;76.71;97269.75;4980366;28;20109;-72
2021/01/30 08:42:29;;;;;;;11.38;3.22;;;;;;;6.84;76.57;97261.41;4976812;28;20027;-75
2021/01/30 08:44:58;;;;;;;15.40;2.90;;;;;;;6.85;76.59;97248.78;4994998;28;20022;-76
2021/01/30 08:47:28;;;;;;;7.78;1.90;;;;;;;6.99;76.00;97255.72;4994763;28;20025;-74
2021/01/30 08:50:33;;;;;;;11.18;3.05;;;;;;;7.09;75.60;97256.03;4994763;28;20508;-74
2021/01/30 08:53:12;;;;;;;11.40;3.45;;;;;;;7.15;75.29;97247.13;4992609;28;20061;-71
2021/01/30 08:55:44;;;;;;;17.25;3.85;;;;;;;7.15;74.90;97257.03;4996139;28;20033;-71
2021/01/30 08:58:37;;;;;;;14.73;2.88;;;;;;;7.31;74.70;97245.75;4987574;28;20035;-71
2021/01/30 09:01:37;;;;;;;8.52;1.77;;;;;;;7.40;74.73;97246.28;4992073;28;20444;-71
2021/01/30 09:04:41;;;;;;;9.40;2.00;;;;;;;7.60;74.39;97240.72;4990968;28;20334;-73
2021/01/30 09:07:07;;;;;;;6.65;1.65;;;;;;;7.71;73.45;97228.38;4994975;28;20081;-74
2021/01/30 09:09:32;;;;;;;8.48;1.95;;;;;;;7.89;73.10;97239.16;4983735;28;20045;-73
2021/01/30 09:12:02;;;;;;;32.70;11.02;;;;;;;7.93;72.77;97245.72;4995126;28;20109;-74
2021/01/30 09:14:28;;;;;;;102.75;31.52;;;;;;;8.04;73.07;97249.53;4992366;28;20045;-72
2021/01/30 09:17:05;;;;;;;104.35;32.58;;;;;;;8.19;72.54;97241.88;4995193;28;20018;-74
2021/01/30 09:20:07;;;;;;;31.58;10.20;;;;;;;8.25;72.23;97245.53;4990387;28;20018;-72
2021/01/30 09:22:35;;;;;;;12.45;2.05;;;;;;;8.13;72.38;97240.09;4983322;28;20026;-77
2021/01/30 09:25:49;;;;;;;7.90;1.90;;;;;;;8.30;72.13;97241.09;4982592;28;20397;-71
2021/01/30 09:28:20;;;;;;;9.73;2.00;;;;;;;8.16;71.75;97228.06;4979439;28;20046;-71
2021/01/30 09:30:51;;;;;;;5.57;1.55;;;;;;;8.31;72.26;97239.25;4984691;28;20116;-72
2021/01/30 09:33:27;;;;;;;6.55;1.40;;;;;;;8.38;71.54;97245.34;4992244;28;20034;-71
2021/01/30 09:36:14;;;;;;;9.55;1.55;;;;;;;8.47;71.29;97233.25;4980841;28;20034;-71
2021/01/30 09:38:46;;;;;;;7.90;1.98;;;;;;;8.66;71.24;97230.50;4984124;28;20408;-70
2021/01/30 09:41:15;;;;;;;5.10;1.38;;;;;;;8.86;70.07;97224.81;4983454;28;20031;-69
2021/01/30 09:43:41;;;;;;;7.38;1.77;;;;;;;8.89;70.90;97217.09;4989098;28;20121;-68
2021/01/30 09:46:13;;;;;;;10.48;1.95;;;;;;;8.80;70.27;97207.66;4983208;28;20110;-68
2021/01/30 09:48:40;;;;;;;6.85;1.55;;;;;;;8.96;69.91;97223.19;4980863;28;20030;-68
2021/01/30 09:51:07;;;;;;;12.15;2.10;;;;;;;8.91;70.55;97224.97;4986995;28;20081;-69
2021/01/30 09:53:40;;;;;;;11.02;2.28;;;;;;;8.93;70.32;97217.44;4981158;28;20384;-69
2021/01/30 09:56:11;;;;;;;11.00;2.20;;;;;;;8.99;70.71;97228.13;4983265;28;20492;-68
2021/01/30 09:58:40;;;;;;;8.15;1.83;;;;;;;8.86;70.38;97198.69;4979097;28;20034;-68
2021/01/30 10:01:08;;;;;;;8.23;1.88;;;;;;;9.11;69.96;97230.03;4983645;28;20038;-68
2021/01/30 10:03:43;;;;;;;8.77;2.00;;;;;;;9.22;69.79;97207.59;4982302;28;20076;-71
2021/01/30 10:06:14;;;;;;;11.73;2.17;;;;;;;9.33;69.78;97214.09;4977223;28;20045;-72
2021/01/30 10:08:41;;;;;;;6.22;1.77;;;;;;;9.28;69.84;97209.41;4991563;28;20512;-70
2021/01/30 10:11:11;;;;;;;7.03;1.60;;;;;;;9.53;68.02;97205.63;4988250;28;20033;-71
2021/01/30 10:13:39;;;;;;;6.05;1.48;;;;;;;9.57;68.80;97206.81;4984884;28;20022;-74
2021/01/30 10:16:10;;;;;;;15.65;2.20;;;;;;;9.56;69.40;97188.94;4990618;28;20030;-67
2021/01/30 10:18:43;;;;;;;9.95;1.67;;;;;;;9.60;68.40;97180.16;4993999;28;20396;-67
2021/01/30 10:21:10;;;;;;;8.63;1.30;;;;;;;9.80;67.15;97198.69;4988663;28;20057;-70
2021/01/30 10:23:48;;;;;;;8.25;1.63;;;;;;;9.95;66.99;97178.44;4976105;28;20516;-71
2021/01/30 10:26:24;;;;;;;7.35;1.20;;;;;;;10.23;66.63;97185.75;4989191;28;20034;-73
2021/01/30 10:28:55;;;;;;;7.55;1.42;;;;;;;10.26;66.47;97175.25;4996335;28;20022;-73
2021/01/30 10:31:34;;;;;;;12.45;2.10;;;;;;;11.10;65.05;97171.06;4981614;28;20128;-76
2021/01/30 10:34:18;;;;;;;6.25;1.33;;;;;;;11.42;63.65;97171.25;4974424;28;20030;-71
2021/01/30 10:36:52;;;;;;;9.68;1.83;;;;;;;11.31;64.22;97161.38;4973730;28;20397;-74
2021/01/30 10:39:19;;;;;;;5.45;1.30;;;;;;;11.08;63.45;97162.38;4985815;28;20060;-68
2021/01/30 10:41:44;;;;;;;6.78;1.70;;;;;;;10.44;65.32;97158.06;4989203;28;20025;-68
2021/01/30 10:44:11;;;;;;;7.38;1.25;;;;;;;10.11;66.11;97166.84;4972884;28;20023;-68
2021/01/30 10:46:40;;;;;;;8.68;1.38;;;;;;;10.28;66.55;97165.06;4987823;28;20477;-67
2021/01/30 10:49:09;;;;;;;9.30;1.60;;;;;;;9.51;69.27;97165.38;4973635;28;20481;-68
2021/01/30 10:51:36;;;;;;;7.40;1.63;;;;;;;9.34;70.30;97149.06;4986246;28;20065;-68
2021/01/30 10:54:10;;;;;;;11.63;1.58;;;;;;;9.17;69.80;97170.56;4989434;28;20906;-68
2021/01/30 10:56:35;;;;;;;7.95;1.85;;;;;;;8.94;71.46;97165.97;4974274;28;20038;-68
2021/01/30 10:59:20;;;;;;;11.32;1.98;;;;;;;9.02;71.19;97161.28;4989871;28;20076;-68
2021/01/30 11:01:45;;;;;;;5.50;1.55;;;;;;;8.99;71.43;97163.41;4987676;28;20080;-68
2021/01/30 11:04:11;;;;;;;10.75;1.38;;;;;;;8.68;73.02;97155.63;4991279;28;20480;-68
2021/01/30 11:06:42;;;;;;;13.70;1.35;;;;;;;8.42;74.43;97168.44;4990218;28;20022;-70
2021/01/30 11:09:24;;;;;;;6.70;1.27;;;;;;;8.25;75.95;97164.72;4990475;28;20037;-70
2021/01/30 11:12:06;;;;;;;6.75;1.05;;;;;;;8.27;77.22;97168.00;4990401;28;20503;-70
2021/01/30 11:14:32;;;;;;;7.43;1.35;;;;;;;7.96;76.75;97151.00;4973353;28;20031;-70
2021/01/30 11:16:59;;;;;;;6.90;1.52;;;;;;;7.84;78.04;97169.81;4990304;28;20461;-70
2021/01/30 11:19:39;;;;;;;9.57;1.00;;;;;;;7.78;79.51;97173.41;4990413;28;20092;-70
2021/01/30 11:22:11;;;;;;;6.63;1.30;;;;;;;7.64;80.02;97170.03;4976799;28;20030;-71
2021/01/30 11:24:48;;;;;;;4.90;0.90;;;;;;;7.64;80.83;97172.72;4990328;28;20649;-71
2021/01/30 11:27:26;;;;;;;6.13;1.33;;;;;;;7.48;80.19;97162.56;4986256;28;20026;-71
2021/01/30 11:29:52;;;;;;;7.13;0.90;;;;;;;7.61;80.36;97158.91;4986099;28;20034;-71
2021/01/30 11:32:20;;;;;;;6.13;0.75;;;;;;;7.41;80.02;97153.72;4990335;28;20034;-71
2021/01/30 11:34:54;;;;;;;3.83;0.70;;;;;;;7.52;80.39;97144.94;4988465;28;20090;-71
2021/01/30 11:37:20;;;;;;;2.80;0.38;;;;;;;7.55;80.08;97140.97;4990491;28;20038;-71
2021/01/30 11:39:45;;;;;;;4.05;0.88;;;;;;;7.35;80.04;97131.25;4977317;28;20050;-71
2021/01/30 11:42:10;;;;;;;4.63;0.40;;;;;;;7.36;80.42;97118.59;4984376;28;20115;-71
2021/01/30 11:44:36;;;;;;;2.33;0.47;;;;;;;7.56;78.79;97115.69;4989876;28;20029;-69
2021/01/30 11:47:02;;;;;;;4.07;0.68;;;;;;;7.54;79.75;97112.41;4989349;28;20034;-71
2021/01/30 11:49:27;;;;;;;5.47;0.50;;;;;;;7.63;79.42;97121.81;4981195;28;20141;-71
2021/01/30 11:51:53;;;;;;;6.03;0.65;;;;;;;7.54;80.34;97107.84;4971554;28;20552;-70
2021/01/30 11:54:18;;;;;;;2.78;0.32;;;;;;;7.91;78.51;97118.53;4975998;28;20018;-70
2021/01/30 11:56:44;;;;;;;3.83;0.63;;;;;;;8.00;78.69;97114.50;4994840;28;20105;-69
2021/01/30 11:59:12;;;;;;;2.30;0.50;;;;;;;8.12;78.57;97096.53;4981678;28;20432;-69
2021/01/30 12:01:38;;;;;;;2.92;0.52;;;;;;;8.32;77.64;97093.50;4986639;28;20122;-69
2021/01/30 12:04:03;;;;;;;2.65;0.52;;;;;;;8.56;76.05;97083.63;4989586;28;20053;-70
2021/01/30 12:06:28;;;;;;;1.90;0.35;;;;;;;8.68;76.81;97099.00;4972245;28;20066;-70
2021/01/30 12:08:54;;;;;;;1.85;0.40;;;;;;;9.13;74.75;97088.44;4979371;28;20081;-70
2021/01/30 12:11:20;;;;;;;2.78;0.75;;;;;;;9.24;75.05;97081.38;4989760;28;20093;-68